createdAt,value
2019-02-15T00:01:19.028Z,11.73
2019-02-15T00:03:50.474Z,9.83
2019-02-15T00:06:21.622Z,9.40
2019-02-15T00:08:52.768Z,9.03
2019-02-15T00:11:24.218Z,9.97
2019-02-15T00:13:55.309Z,10.73
2019-02-15T00:16:26.507Z,9.53
2019-02-15T00:19:03.787Z,8.27
2019-02-15T00:21:40.770Z,10.13
2019-02-15T00:24:11.161Z,9.17
2019-02-15T00:26:42.136Z,9.80
2019-02-15T00:29:12.441Z,8.67
2019-02-15T00:31:42.929Z,9.40
2019-02-15T00:34:13.194Z,10.40
2019-02-15T00:36:44.249Z,9.30
2019-02-15T00:39:14.648Z,8.67
2019-02-15T00:41:45.614Z,11.20
2019-02-15T00:44:15.886Z,8.47
2019-02-15T00:47:10.025Z,9.63
2019-02-15T00:49:48.562Z,9.90
2019-02-15T00:52:47.333Z,9.70
2019-02-15T00:55:51.040Z,8.83
2019-02-15T00:58:37.238Z,9.63
2019-02-15T01:01:42.794Z,10.53
2019-02-15T01:04:20.509Z,10.53
2019-02-15T01:06:59.028Z,9.10
2019-02-15T01:09:37.671Z,9.13
2019-02-15T01:12:14.951Z,11.10
2019-02-15T01:14:45.114Z,11.50
2019-02-15T01:17:16.046Z,10.27
2019-02-15T01:19:46.231Z,9.97
2019-02-15T01:22:16.850Z,9.10
2019-02-15T01:24:47.455Z,8.53
2019-02-15T01:27:30.171Z,9.67
2019-02-15T01:30:31.613Z,10.83
2019-02-15T01:33:15.355Z,8.67
2019-02-15T01:36:12.670Z,8.60
2019-02-15T01:39:01.673Z,8.80
2019-02-15T01:41:54.633Z,9.33
2019-02-15T01:44:45.011Z,10.93
2019-02-15T01:47:22.427Z,9.87
2019-02-15T01:49:53.870Z,9.37
2019-02-15T01:52:25.318Z,8.83
2019-02-15T01:54:56.152Z,9.77
2019-02-15T01:57:27.293Z,9.70
2019-02-15T01:59:58.454Z,9.67
2019-02-15T02:02:30.536Z,10.53
2019-02-15T02:05:01.650Z,10.77
2019-02-15T02:07:33.097Z,10.27
2019-02-15T02:10:05.785Z,11.50
2019-02-15T02:12:37.366Z,9.23
2019-02-15T02:15:09.852Z,10.20
2019-02-15T02:17:41.973Z,9.47
2019-02-15T02:20:12.969Z,10.43
2019-02-15T02:22:43.958Z,9.60
2019-02-15T02:25:15.414Z,10.80
2019-02-15T02:27:46.558Z,9.43
2019-02-15T02:30:18.007Z,10.03
2019-02-15T02:32:49.437Z,11.10
2019-02-15T02:35:20.916Z,9.83
2019-02-15T02:37:51.734Z,9.60
2019-02-15T02:40:22.878Z,11.43
2019-02-15T02:42:54.031Z,9.87
2019-02-15T02:45:25.126Z,10.47
2019-02-15T02:47:55.821Z,11.97
2019-02-15T02:50:27.158Z,11.13
2019-02-15T02:52:58.297Z,11.27
2019-02-15T02:55:29.198Z,11.07
2019-02-15T02:58:00.573Z,11.20
2019-02-15T03:00:33.821Z,10.53
2019-02-15T03:03:04.747Z,11.13
2019-02-15T03:05:35.841Z,11.83
2019-02-15T03:08:06.694Z,9.97
2019-02-15T03:10:37.841Z,11.43
2019-02-15T03:13:08.983Z,9.10
2019-02-15T03:15:40.763Z,11.17
2019-02-15T03:18:11.891Z,10.73
2019-02-15T03:20:43.642Z,10.87
2019-02-15T03:23:14.787Z,11.30
2019-02-15T03:25:45.931Z,12.40
2019-02-15T03:28:16.774Z,11.27
2019-02-15T03:30:48.271Z,10.43
2019-02-15T03:33:19.588Z,10.77
2019-02-15T03:35:56.454Z,11.63
2019-02-15T03:38:45.177Z,11.53
2019-02-15T03:41:30.584Z,11.17
2019-02-15T03:44:02.217Z,10.77
2019-02-15T03:46:33.126Z,11.07
2019-02-15T03:49:04.017Z,10.90
2019-02-15T03:51:34.846Z,13.57
2019-02-15T03:54:05.942Z,10.30
2019-02-15T03:56:37.139Z,12.53
2019-02-15T03:59:08.586Z,11.73
2019-02-15T04:01:39.574Z,10.57
2019-02-15T04:04:10.070Z,10.97
2019-02-15T04:06:41.090Z,11.80
2019-02-15T04:09:11.438Z,10.13
2019-02-15T04:11:42.167Z,11.87
2019-02-15T04:14:12.483Z,11.97
2019-02-15T04:16:43.243Z,12.53
2019-02-15T04:19:13.548Z,11.47
2019-02-15T04:21:44.343Z,10.80
2019-02-15T04:24:14.671Z,11.90
2019-02-15T04:26:45.649Z,10.60
2019-02-15T04:29:16.278Z,11.40
2019-02-15T04:31:46.997Z,11.03
2019-02-15T04:34:17.303Z,11.77
2019-02-15T04:36:48.364Z,10.87
2019-02-15T04:39:18.696Z,12.20
2019-02-15T04:41:49.423Z,11.83
2019-02-15T04:44:19.753Z,11.87
2019-02-15T04:46:50.503Z,11.27
2019-02-15T04:49:20.816Z,11.37
2019-02-15T04:51:51.541Z,10.80
2019-02-15T04:54:22.694Z,10.67
2019-02-15T04:56:54.136Z,11.80
2019-02-15T04:59:25.281Z,11.30
2019-02-15T05:01:56.177Z,11.20
2019-02-15T05:04:27.264Z,11.27
2019-02-15T05:06:58.412Z,11.73
2019-02-15T05:09:29.236Z,11.77
2019-02-15T05:12:00.378Z,10.67
2019-02-15T05:14:32.449Z,11.70
2019-02-15T05:17:03.995Z,10.47
2019-02-15T05:19:35.352Z,11.53
2019-02-15T05:22:06.188Z,11.57
2019-02-15T05:24:37.157Z,11.80
2019-02-15T05:27:08.065Z,10.77
2019-02-15T05:29:39.519Z,11.80
2019-02-15T05:32:10.665Z,11.90
2019-02-15T05:34:41.514Z,11.27
2019-02-15T05:37:12.646Z,11.40
2019-02-15T05:39:44.356Z,11.23
2019-02-15T05:42:16.462Z,11.13
2019-02-15T05:44:48.218Z,11.90
2019-02-15T05:47:19.369Z,14.23
2019-02-15T05:49:50.290Z,11.50
2019-02-15T05:52:21.337Z,11.43
2019-02-15T05:54:52.483Z,11.43
2019-02-15T05:57:23.629Z,11.90
2019-02-15T05:59:54.775Z,13.40
2019-02-15T06:02:26.326Z,11.73
2019-02-15T06:04:57.471Z,13.17
2019-02-15T06:07:28.917Z,12.10
2019-02-15T06:09:59.800Z,12.73
2019-02-15T06:12:30.593Z,12.40
2019-02-15T06:15:01.735Z,12.53
2019-02-15T06:17:32.879Z,13.53
2019-02-15T06:20:04.023Z,13.13
2019-02-15T06:22:35.910Z,13.30
2019-02-15T06:25:07.027Z,12.57
2019-02-15T06:27:37.385Z,12.30
2019-02-15T06:30:08.681Z,13.73
2019-02-15T06:32:39.002Z,13.93
2019-02-15T06:35:09.542Z,16.90
2019-02-15T06:37:39.991Z,13.43
2019-02-15T06:40:10.674Z,12.43
2019-02-15T06:42:41.353Z,11.43
2019-02-15T06:45:12.043Z,14.20
2019-02-15T06:47:42.714Z,12.37
2019-02-15T06:50:13.326Z,15.27
2019-02-15T06:52:45.002Z,12.27
2019-02-15T06:55:15.838Z,13.00
2019-02-15T06:57:46.672Z,13.60
2019-02-15T07:00:37.102Z,13.23
2019-02-15T07:03:30.434Z,14.63
2019-02-15T07:06:01.271Z,13.87
2019-02-15T07:08:32.110Z,13.83
2019-02-15T07:11:03.326Z,13.83
2019-02-15T07:13:34.392Z,13.47
2019-02-15T07:16:05.549Z,14.37
2019-02-15T07:18:36.999Z,13.77
2019-02-15T07:21:08.068Z,13.77
2019-02-15T07:23:38.967Z,15.13
2019-02-15T07:26:10.723Z,16.37
2019-02-15T07:28:42.195Z,13.70
2019-02-15T07:31:13.014Z,15.20
2019-02-15T07:33:44.462Z,15.70
2019-02-15T07:36:15.302Z,13.20
2019-02-15T07:38:46.174Z,16.07
2019-02-15T07:41:17.587Z,14.33
2019-02-15T07:43:48.725Z,13.80
2019-02-15T07:46:19.378Z,15.90
2019-02-15T07:48:50.406Z,14.27
2019-02-15T07:51:20.733Z,13.03
2019-02-15T07:53:51.769Z,15.67
2019-02-15T07:56:22.632Z,14.30
2019-02-15T07:58:53.437Z,13.80
2019-02-15T08:01:24.560Z,13.77
2019-02-15T08:03:55.753Z,13.27
2019-02-15T08:06:26.874Z,14.98
2019-02-15T08:08:58.043Z,13.40
2019-02-15T08:11:29.017Z,14.10
2019-02-15T08:14:00.327Z,14.07
2019-02-15T08:16:31.886Z,13.03
2019-02-15T08:19:03.123Z,13.83
2019-02-15T08:21:34.370Z,13.30
2019-02-15T08:24:05.806Z,12.07
2019-02-15T08:26:37.253Z,14.40
2019-02-15T08:29:08.631Z,13.97
2019-02-15T08:31:40.167Z,12.77
2019-02-15T08:34:11.604Z,12.40
2019-02-15T08:36:42.751Z,14.57
2019-02-15T08:39:14.201Z,13.07
2019-02-15T08:42:00.664Z,13.47
2019-02-15T08:44:18.595Z,14.75
2019-02-15T08:46:49.786Z,12.43
2019-02-15T08:49:21.261Z,12.37
2019-02-15T08:51:52.682Z,12.00
2019-02-15T08:54:24.444Z,12.37
2019-02-15T08:56:55.591Z,12.47
2019-02-15T08:59:26.548Z,13.67
2019-02-15T09:02:17.229Z,12.20
2019-02-15T09:04:48.403Z,11.10
2019-02-15T09:07:19.445Z,13.40
2019-02-15T09:09:50.685Z,12.40
2019-02-15T09:12:21.499Z,11.53
2019-02-15T09:14:52.641Z,11.67
2019-02-15T09:17:23.802Z,13.83
2019-02-15T09:19:55.229Z,14.03
2019-02-15T09:22:26.073Z,10.57
2019-02-15T09:24:57.834Z,11.37
2019-02-15T09:27:35.853Z,10.37
2019-02-15T09:30:08.256Z,10.70
2019-02-15T09:32:39.245Z,12.53
2019-02-15T09:35:11.310Z,13.90
2019-02-15T09:37:42.791Z,13.80
2019-02-15T09:40:13.928Z,16.90
2019-02-15T09:42:44.737Z,14.67
2019-02-15T09:45:15.565Z,11.63
2019-02-15T09:47:47.603Z,12.77
2019-02-15T09:50:19.208Z,11.83
2019-02-15T09:52:51.789Z,14.20
2019-02-15T09:55:22.946Z,12.67
2019-02-15T09:57:54.073Z,14.00
2019-02-15T10:00:25.817Z,16.53
2019-02-15T10:02:56.962Z,12.50
2019-02-15T10:05:28.098Z,12.33
2019-02-15T10:07:58.961Z,12.43
2019-02-15T10:10:30.372Z,14.33
2019-02-15T10:13:00.858Z,12.37
2019-02-15T10:15:31.498Z,18.40
2019-02-15T10:18:03.318Z,15.73
2019-02-15T10:20:34.068Z,14.53
2019-02-15T10:23:05.739Z,21.27
2019-02-15T10:25:36.329Z,17.13
2019-02-15T10:28:06.983Z,15.23
2019-02-15T10:30:37.699Z,17.90
2019-02-15T10:33:09.290Z,15.87
2019-02-15T10:35:39.834Z,16.97
2019-02-15T10:38:10.391Z,16.73
2019-02-15T10:40:41.062Z,16.27
2019-02-15T10:43:11.445Z,15.07
2019-02-15T10:45:43.634Z,15.00
2019-02-15T10:48:14.068Z,15.30
2019-02-15T10:50:45.018Z,15.17
2019-02-15T10:53:15.330Z,16.10
2019-02-15T10:55:46.083Z,15.47
2019-02-15T10:58:16.826Z,18.77
2019-02-15T11:00:47.729Z,15.20
2019-02-15T11:03:18.586Z,13.37
2019-02-15T11:05:49.877Z,14.53
2019-02-15T11:08:21.011Z,17.07
2019-02-15T11:10:52.004Z,18.20
2019-02-15T11:13:22.409Z,17.07
2019-02-15T11:15:53.071Z,16.33
2019-02-15T11:18:23.390Z,15.67
2019-02-15T11:20:54.362Z,15.57
2019-02-15T11:23:24.707Z,14.47
2019-02-15T11:25:55.791Z,15.03
2019-02-15T11:28:26.197Z,16.17
2019-02-15T11:30:58.413Z,17.03
2019-02-15T11:33:28.718Z,15.73
2019-02-15T11:36:00.681Z,15.37
2019-02-15T11:38:31.015Z,15.33
2019-02-15T11:41:10.741Z,14.80
2019-02-15T11:43:34.236Z,14.80
2019-02-15T11:46:05.245Z,26.62
2019-02-15T11:48:35.603Z,33.83
2019-02-15T11:51:06.307Z,35.83
2019-02-15T11:53:36.678Z,42.90
2019-02-15T11:56:07.383Z,38.90
2019-02-15T11:58:38.202Z,37.73
2019-02-15T12:01:09.958Z,42.47
2019-02-15T12:03:41.107Z,37.33
2019-02-15T12:06:12.558Z,42.37
2019-02-15T12:08:43.662Z,40.07
2019-02-15T12:11:14.540Z,45.63
2019-02-15T12:13:45.678Z,45.00
2019-02-15T12:16:16.710Z,43.20
2019-02-15T12:18:47.660Z,44.50
2019-02-15T12:21:18.800Z,41.27
2019-02-15T12:23:49.454Z,41.47
2019-02-15T12:26:21.093Z,42.30
2019-02-15T12:28:51.963Z,43.17
2019-02-15T12:31:23.069Z,43.40
2019-02-15T12:33:54.318Z,36.80
2019-02-15T12:36:25.190Z,29.77
2019-02-15T12:38:56.670Z,28.10
2019-02-15T12:41:27.383Z,26.83
2019-02-15T12:43:58.589Z,24.13
2019-02-15T12:46:30.035Z,24.13
2019-02-15T12:49:00.865Z,22.13
2019-02-15T12:51:32.010Z,24.60
2019-02-15T12:54:03.462Z,21.83
2019-02-15T12:56:34.612Z,22.80
2019-02-15T12:59:06.117Z,26.37
2019-02-15T13:01:37.202Z,26.47
2019-02-15T13:04:08.347Z,25.60
2019-02-15T13:06:39.781Z,24.20
2019-02-15T13:09:10.748Z,23.10
2019-02-15T13:11:42.090Z,23.07
2019-02-15T13:14:13.235Z,28.07
2019-02-15T13:16:45.295Z,28.60
2019-02-15T13:19:15.605Z,36.73
2019-02-15T13:21:46.160Z,34.93
2019-02-15T13:24:16.670Z,38.17
2019-02-15T13:26:47.722Z,35.87
2019-02-15T13:29:18.031Z,40.70
2019-02-15T13:31:49.083Z,40.33
2019-02-15T13:34:19.391Z,36.43
2019-02-15T13:36:50.464Z,39.90
2019-02-15T13:39:20.764Z,37.60
2019-02-15T13:41:51.884Z,32.43
2019-02-15T13:44:22.317Z,33.10
2019-02-15T13:46:54.104Z,32.63
2019-02-15T13:49:24.489Z,30.87
2019-02-15T13:51:55.158Z,31.83
2019-02-15T13:54:25.572Z,35.23
2019-02-15T13:56:56.937Z,32.60
2019-02-15T13:59:27.317Z,34.07
2019-02-15T14:01:58.300Z,31.13
2019-02-15T14:04:28.607Z,28.73
2019-02-15T14:06:59.984Z,30.43
2019-02-15T14:09:30.240Z,29.50
2019-02-15T14:12:02.974Z,29.17
2019-02-15T14:14:33.186Z,31.43
2019-02-15T14:17:03.949Z,29.87
2019-02-15T14:19:34.332Z,30.23
2019-02-15T14:22:05.306Z,31.03
2019-02-15T14:24:35.610Z,29.67
2019-02-15T14:27:06.462Z,27.90
2019-02-15T14:29:36.875Z,27.37
2019-02-15T14:32:08.135Z,27.87
2019-02-15T14:34:38.447Z,26.67
2019-02-15T14:37:09.283Z,26.47
2019-02-15T14:39:39.506Z,25.53
2019-02-15T14:42:10.578Z,25.30
2019-02-15T14:44:41.075Z,27.20
2019-02-15T14:47:13.459Z,23.93
2019-02-15T14:49:43.785Z,25.17
2019-02-15T14:52:14.882Z,26.17
2019-02-15T14:54:45.530Z,25.87
2019-02-15T14:57:17.266Z,22.23
2019-02-15T14:59:47.811Z,26.17
2019-02-15T15:02:18.784Z,27.37
2019-02-15T15:04:49.182Z,26.63
2019-02-15T15:07:19.863Z,28.73
2019-02-15T15:09:50.226Z,27.93
2019-02-15T15:12:20.963Z,27.63
2019-02-15T15:14:51.420Z,28.07
2019-02-15T15:17:22.601Z,28.23
2019-02-15T15:19:54.163Z,26.83
2019-02-15T15:22:24.870Z,26.70
2019-02-15T15:24:55.172Z,24.97
2019-02-15T15:27:26.228Z,27.03
2019-02-15T15:29:56.522Z,26.10
2019-02-15T15:32:27.785Z,30.43
2019-02-15T15:34:58.067Z,26.17
2019-02-15T15:37:29.374Z,25.73
2019-02-15T15:39:59.727Z,29.30
2019-02-15T15:42:30.734Z,25.43
2019-02-15T15:45:01.042Z,28.97
2019-02-15T15:47:33.338Z,28.60
2019-02-15T15:50:03.937Z,30.27
2019-02-15T15:52:34.703Z,29.40
2019-02-15T15:55:05.598Z,30.23
2019-02-15T15:57:36.422Z,29.67
2019-02-15T16:00:07.543Z,32.00
2019-02-15T16:02:38.674Z,32.47
2019-02-15T16:05:09.470Z,32.80
2019-02-15T16:07:40.030Z,30.87
2019-02-15T16:10:11.327Z,34.03
2019-02-15T16:12:42.619Z,34.83
2019-02-15T16:15:13.010Z,33.63
2019-02-15T16:17:44.000Z,32.03
2019-02-15T16:20:14.678Z,33.30
2019-02-15T16:22:45.351Z,33.40
2019-02-15T16:25:15.739Z,33.70
2019-02-15T16:27:46.571Z,33.97
2019-02-15T16:30:16.760Z,34.13
2019-02-15T16:32:47.772Z,33.90
2019-02-15T16:35:18.097Z,33.43
2019-02-15T16:37:49.457Z,31.53
2019-02-15T16:40:19.844Z,33.00
2019-02-15T16:42:50.823Z,30.13
2019-02-15T16:45:23.239Z,31.77
2019-02-15T16:47:53.519Z,30.03
2019-02-15T16:50:24.276Z,31.23
2019-02-15T16:52:55.526Z,31.43
2019-02-15T16:55:25.878Z,30.10
2019-02-15T16:57:56.591Z,31.83
2019-02-15T17:00:26.850Z,29.23
2019-02-15T17:02:57.946Z,32.07
2019-02-15T17:05:28.237Z,28.73
2019-02-15T17:07:58.736Z,32.80
2019-02-15T17:10:29.091Z,29.07
2019-02-15T17:12:59.727Z,29.87
2019-02-15T17:15:30.116Z,30.83
2019-02-15T17:18:01.393Z,28.97
2019-02-15T17:20:31.737Z,31.00
2019-02-15T17:23:02.751Z,28.93
2019-02-15T17:25:33.477Z,27.13
2019-02-15T17:28:04.744Z,29.47
2019-02-15T17:30:37.493Z,27.10
2019-02-15T17:33:09.278Z,31.33
2019-02-15T17:35:40.016Z,28.37
2019-02-15T17:38:11.682Z,27.27
2019-02-15T17:40:42.272Z,27.20
2019-02-15T17:43:13.444Z,29.43
2019-02-15T17:45:43.969Z,28.13
2019-02-15T17:48:15.126Z,28.53
2019-02-15T17:50:45.638Z,27.17
2019-02-15T17:53:17.205Z,28.33
2019-02-15T17:55:47.490Z,28.70
2019-02-15T17:58:19.256Z,28.60
2019-02-15T18:00:49.661Z,29.83
2019-02-15T18:03:20.835Z,26.73
2019-02-15T18:05:51.190Z,29.17
2019-02-15T18:08:22.314Z,25.57
2019-02-15T18:10:52.881Z,26.63
2019-02-15T18:13:23.630Z,25.93
2019-02-15T18:15:54.003Z,28.10
2019-02-15T18:18:24.640Z,27.20
2019-02-15T18:20:55.252Z,26.90
2019-02-15T18:23:26.006Z,26.27
2019-02-15T18:25:56.416Z,27.77
2019-02-15T18:28:27.454Z,25.87
2019-02-15T18:30:57.781Z,26.30
2019-02-15T18:33:28.548Z,28.73
2019-02-15T18:35:58.828Z,26.13
2019-02-15T18:38:30.102Z,28.40
2019-02-15T18:41:01.260Z,25.60
2019-02-15T18:43:32.777Z,27.33
2019-02-15T18:46:04.183Z,26.37
2019-02-15T18:48:35.290Z,25.13
2019-02-15T18:51:06.450Z,25.73
2019-02-15T18:53:40.699Z,27.80
2019-02-15T18:56:12.102Z,25.03
2019-02-15T18:58:43.252Z,26.57
2019-02-15T19:01:15.620Z,26.57
2019-02-15T19:03:46.797Z,27.63
2019-02-15T19:06:19.216Z,27.33
2019-02-15T19:08:51.257Z,27.93
2019-02-15T19:11:23.485Z,25.50
2019-02-15T19:13:54.858Z,28.37
2019-02-15T19:16:26.200Z,27.80
2019-02-15T19:18:57.019Z,25.83
2019-02-15T19:21:28.169Z,26.87
2019-02-15T19:23:59.326Z,28.03
2019-02-15T19:26:30.203Z,25.10
2019-02-15T19:29:01.045Z,27.23
2019-02-15T19:31:32.502Z,26.07
2019-02-15T19:34:03.967Z,27.27
2019-02-15T19:36:35.769Z,24.93
2019-02-15T19:39:07.910Z,24.47
2019-02-15T19:41:38.968Z,26.27
2019-02-15T19:44:10.974Z,24.77
2019-02-15T19:46:42.166Z,27.43
2019-02-15T19:49:13.738Z,25.43
2019-02-15T19:51:45.014Z,25.27
2019-02-15T19:54:16.190Z,24.10
2019-02-15T19:56:47.357Z,23.83
2019-02-15T19:59:18.769Z,29.10
2019-02-15T20:01:49.890Z,24.17
2019-02-15T20:04:21.038Z,24.63
2019-02-15T20:06:52.319Z,24.70
2019-02-15T20:09:23.903Z,26.47
2019-02-15T20:11:55.095Z,25.40
2019-02-15T20:14:26.026Z,27.10
2019-02-15T20:16:57.082Z,26.00
2019-02-15T20:19:28.187Z,26.93
2019-02-15T20:21:59.492Z,26.97
2019-02-15T20:24:30.981Z,26.73
2019-02-15T20:27:02.586Z,26.30
2019-02-15T20:29:33.587Z,25.37
2019-02-15T20:32:05.098Z,27.30
2019-02-15T20:34:45.018Z,25.83
2019-02-15T20:37:09.597Z,24.57
2019-02-15T20:39:42.699Z,28.30
2019-02-15T20:42:14.104Z,27.90
2019-02-15T20:44:45.230Z,26.60
2019-02-15T20:47:17.126Z,26.47
2019-02-15T20:49:57.527Z,25.83
2019-02-15T20:52:21.914Z,23.60
2019-02-15T20:54:52.634Z,26.57
2019-02-15T20:57:24.010Z,27.47
2019-02-15T20:59:54.644Z,26.17
2019-02-15T21:02:26.328Z,25.83
2019-02-15T21:04:57.904Z,25.47
2019-02-15T21:07:29.203Z,26.63
2019-02-15T21:10:00.547Z,25.67
2019-02-15T21:12:32.213Z,27.50
2019-02-15T21:15:03.485Z,26.30
2019-02-15T21:17:34.482Z,26.30
2019-02-15T21:20:07.717Z,26.87
2019-02-15T21:22:38.257Z,26.43
2019-02-15T21:25:10.547Z,25.00
2019-02-15T21:27:43.361Z,28.43
2019-02-15T21:30:14.589Z,25.67
2019-02-15T21:32:45.326Z,27.73
2019-02-15T21:35:16.114Z,26.27
2019-02-15T21:37:47.298Z,27.30
2019-02-15T21:40:18.755Z,28.53
2019-02-15T21:42:52.087Z,27.97
2019-02-15T21:45:23.867Z,26.93
2019-02-15T21:47:55.675Z,26.37
2019-02-15T21:50:27.323Z,28.07
2019-02-15T21:52:58.808Z,26.73
2019-02-15T21:55:30.398Z,28.23
2019-02-15T21:58:02.141Z,28.20
2019-02-15T22:00:34.106Z,27.70
2019-02-15T22:03:07.341Z,27.33
2019-02-15T22:05:39.353Z,28.70
2019-02-15T22:08:12.229Z,26.23
2019-02-15T22:10:44.234Z,27.00
2019-02-15T22:13:16.042Z,27.83
2019-02-15T22:15:47.628Z,26.57
2019-02-15T22:18:24.197Z,29.40
2019-02-15T22:20:57.537Z,26.50
2019-02-15T22:23:29.239Z,25.93
2019-02-15T22:26:00.623Z,26.20
2019-02-15T22:28:31.822Z,26.93
2019-02-15T22:31:03.262Z,27.07
2019-02-15T22:33:35.355Z,26.07
2019-02-15T22:36:06.430Z,27.63
2019-02-15T22:38:38.104Z,24.77
2019-02-15T22:41:16.090Z,27.43
2019-02-15T22:43:47.480Z,23.60
2019-02-15T22:46:19.441Z,24.67
2019-02-15T22:48:50.926Z,24.30
2019-02-15T22:51:22.515Z,24.37
2019-02-15T22:53:54.286Z,25.10
2019-02-15T22:56:25.405Z,23.43
2019-02-15T22:58:56.625Z,25.80
2019-02-15T23:01:27.693Z,24.87
2019-02-15T23:03:58.756Z,24.83
2019-02-15T23:06:29.638Z,26.00
2019-02-15T23:09:00.753Z,23.10
2019-02-15T23:11:33.429Z,23.80
2019-02-15T23:14:04.538Z,23.37
2019-02-15T23:16:35.682Z,24.00
2019-02-15T23:19:06.883Z,21.43
2019-02-15T23:21:37.922Z,25.07
2019-02-15T23:24:09.173Z,24.07
2019-02-15T23:26:40.254Z,22.20
2019-02-15T23:29:11.702Z,21.50
2019-02-15T23:31:42.849Z,20.80
2019-02-15T23:34:14.000Z,22.07
2019-02-15T23:36:45.161Z,21.50
2019-02-15T23:39:15.970Z,20.23
2019-02-15T23:41:47.730Z,20.40
2019-02-15T23:44:19.320Z,20.03
2019-02-15T23:46:50.634Z,21.07
2019-02-15T23:49:22.126Z,19.67
2019-02-15T23:51:52.914Z,21.70
2019-02-15T23:54:23.650Z,20.17
2019-02-15T23:56:54.586Z,20.30
2019-02-15T23:59:25.740Z,20.30
